createdAt,value
2018-09-06T00:01:09.108Z,15.70
2018-09-06T00:03:37.725Z,15.60
2018-09-06T00:06:06.424Z,15.60
2018-09-06T00:08:34.945Z,15.50
2018-09-06T00:11:03.476Z,15.50
2018-09-06T00:13:32.100Z,15.40
2018-09-06T00:16:00.600Z,15.40
2018-09-06T00:18:29.235Z,15.40
2018-09-06T00:20:57.916Z,15.40
2018-09-06T00:23:26.448Z,15.40
2018-09-06T00:25:55.100Z,15.40
2018-09-06T00:28:23.698Z,15.40
2018-09-06T00:30:52.352Z,15.30
2018-09-06T00:33:20.882Z,15.30
2018-09-06T00:35:49.440Z,15.30
2018-09-06T00:38:17.972Z,15.20
2018-09-06T00:40:46.487Z,15.20
2018-09-06T00:43:15.065Z,15.10
2018-09-06T00:45:43.633Z,15.10
2018-09-06T00:48:12.276Z,15.10
2018-09-06T00:50:41.075Z,15.10
2018-09-06T00:53:09.651Z,15.00
2018-09-06T00:55:38.207Z,15.00
2018-09-06T00:58:06.738Z,15.00
2018-09-06T01:00:35.339Z,15.00
2018-09-06T01:03:03.925Z,15.00
2018-09-06T01:05:32.582Z,14.90
2018-09-06T01:08:01.062Z,14.90
2018-09-06T01:10:29.631Z,14.90
2018-09-06T01:12:58.281Z,14.90
2018-09-06T01:15:26.790Z,14.80
2018-09-06T01:17:55.282Z,14.80
2018-09-06T01:20:23.846Z,14.90
2018-09-06T01:22:52.335Z,14.80
2018-09-06T01:25:20.969Z,14.80
2018-09-06T01:27:49.451Z,14.80
2018-09-06T01:30:18.332Z,14.70
2018-09-06T01:32:46.855Z,14.80
2018-09-06T01:35:15.599Z,14.80
2018-09-06T01:37:44.153Z,14.80
2018-09-06T01:40:12.710Z,14.70
2018-09-06T01:42:41.321Z,14.80
2018-09-06T01:45:09.842Z,14.70
2018-09-06T01:47:38.517Z,14.70
2018-09-06T01:50:06.965Z,14.80
2018-09-06T01:52:35.744Z,14.70
2018-09-06T01:55:04.375Z,14.60
2018-09-06T01:57:32.994Z,14.60
2018-09-06T02:00:01.704Z,14.60
2018-09-06T02:02:30.233Z,14.50
2018-09-06T02:04:58.733Z,14.50
2018-09-06T02:07:27.313Z,14.50
2018-09-06T02:09:55.777Z,14.50
2018-09-06T02:12:24.379Z,14.40
2018-09-06T02:14:53.001Z,14.30
2018-09-06T02:17:21.564Z,14.40
2018-09-06T02:19:50.331Z,14.40
2018-09-06T02:22:18.819Z,14.40
2018-09-06T02:24:47.652Z,14.30
2018-09-06T02:27:16.177Z,14.30
2018-09-06T02:29:44.743Z,14.30
2018-09-06T02:32:13.220Z,14.30
2018-09-06T02:34:41.768Z,14.20
2018-09-06T02:37:10.297Z,14.20
2018-09-06T02:39:38.983Z,14.20
2018-09-06T02:42:07.607Z,14.20
2018-09-06T02:44:36.124Z,14.30
2018-09-06T02:47:04.711Z,14.30
2018-09-06T02:49:38.472Z,14.30
2018-09-06T02:52:07.102Z,14.20
2018-09-06T02:54:35.653Z,14.20
2018-09-06T02:57:04.372Z,14.20
2018-09-06T02:59:32.885Z,14.10
2018-09-06T03:02:01.404Z,14.10
2018-09-06T03:04:29.952Z,14.10
2018-09-06T03:06:58.485Z,14.10
2018-09-06T03:09:27.083Z,14.10
2018-09-06T03:11:59.267Z,14.10
2018-09-06T03:14:27.806Z,14.10
2018-09-06T03:16:56.380Z,14.10
2018-09-06T03:19:24.934Z,14.10
2018-09-06T03:21:53.477Z,14.00
2018-09-06T03:24:22.007Z,14.10
2018-09-06T03:26:50.488Z,14.00
2018-09-06T03:29:19.035Z,14.00
2018-09-06T03:31:47.556Z,14.00
2018-09-06T03:34:16.060Z,14.00
2018-09-06T03:36:44.555Z,14.00
2018-09-06T03:39:13.059Z,14.00
2018-09-06T03:41:41.618Z,13.90
2018-09-06T03:44:10.296Z,13.90
2018-09-06T03:46:39.350Z,13.90
2018-09-06T03:49:07.937Z,13.90
2018-09-06T03:51:36.520Z,13.90
2018-09-06T03:54:05.019Z,13.90
2018-09-06T03:56:33.866Z,13.90
2018-09-06T03:59:02.576Z,13.90
2018-09-06T04:01:31.313Z,13.90
2018-09-06T04:03:59.996Z,13.80
2018-09-06T04:06:28.507Z,13.90
2018-09-06T04:08:57.196Z,13.90
2018-09-06T04:11:25.692Z,13.90
2018-09-06T04:13:54.238Z,13.90
2018-09-06T04:16:22.695Z,13.90
2018-09-06T04:18:51.270Z,13.90
2018-09-06T04:21:19.843Z,13.80
2018-09-06T04:23:48.517Z,13.80
2018-09-06T04:26:17.020Z,13.80
2018-09-06T04:28:45.476Z,13.90
2018-09-06T04:31:14.007Z,13.90
2018-09-06T04:33:42.572Z,13.90
2018-09-06T04:36:11.134Z,13.90
2018-09-06T04:38:39.998Z,13.90
2018-09-06T04:41:08.568Z,13.80
2018-09-06T04:43:37.158Z,13.90
2018-09-06T04:46:05.650Z,13.80
2018-09-06T04:48:34.219Z,13.80
2018-09-06T04:51:02.937Z,13.80
2018-09-06T04:53:31.522Z,13.70
2018-09-06T04:56:00.484Z,13.80
2018-09-06T04:58:29.109Z,13.80
2018-09-06T05:00:57.544Z,13.80
2018-09-06T05:03:26.041Z,13.80
2018-09-06T05:05:54.597Z,13.80
2018-09-06T05:08:23.066Z,13.70
2018-09-06T05:10:51.669Z,13.70
2018-09-06T05:13:20.358Z,13.70
2018-09-06T05:15:49.086Z,13.70
2018-09-06T05:18:17.732Z,13.70
2018-09-06T05:20:46.454Z,13.70
2018-09-06T05:23:15.101Z,13.70
2018-09-06T05:25:46.765Z,13.80
2018-09-06T05:28:15.378Z,13.80
2018-09-06T05:30:43.887Z,13.90
2018-09-06T05:33:12.403Z,14.00
2018-09-06T05:35:40.917Z,14.10
2018-09-06T05:38:09.428Z,14.30
2018-09-06T05:40:38.081Z,14.40
2018-09-06T05:43:06.618Z,14.50
2018-09-06T05:45:35.213Z,14.60
2018-09-06T05:48:03.681Z,14.70
2018-09-06T05:50:32.512Z,14.70
2018-09-06T05:53:02.044Z,14.80
2018-09-06T05:55:31.021Z,14.80
2018-09-06T05:57:59.697Z,14.80
2018-09-06T06:00:47.742Z,14.90
2018-09-06T06:03:16.394Z,14.90
2018-09-06T06:05:44.937Z,14.90
2018-09-06T06:08:24.754Z,14.90
2018-09-06T06:10:53.257Z,14.90
2018-09-06T06:13:21.820Z,14.90
2018-09-06T06:15:50.372Z,14.90
2018-09-06T06:18:18.903Z,15.00
2018-09-06T06:20:47.444Z,15.10
2018-09-06T06:23:15.938Z,15.20
2018-09-06T06:25:44.492Z,15.20
2018-09-06T06:28:13.092Z,15.30
2018-09-06T06:30:41.675Z,15.40
2018-09-06T06:33:10.194Z,15.40
2018-09-06T06:35:38.695Z,15.50
2018-09-06T06:38:07.283Z,15.50
2018-09-06T06:40:36.009Z,15.50
2018-09-06T06:43:04.603Z,15.50
2018-09-06T06:45:33.240Z,15.50
2018-09-06T06:48:01.790Z,15.50
2018-09-06T06:50:30.497Z,15.60
2018-09-06T06:52:58.905Z,15.60
2018-09-06T06:55:27.477Z,15.60
2018-09-06T06:57:55.955Z,15.70
2018-09-06T07:00:24.662Z,15.80
2018-09-06T07:02:53.567Z,15.90
2018-09-06T07:05:22.786Z,15.90
2018-09-06T07:07:51.881Z,16.00
2018-09-06T07:10:20.355Z,16.20
2018-09-06T07:12:48.852Z,16.20
2018-09-06T07:15:17.631Z,16.30
2018-09-06T07:17:46.726Z,16.40
2018-09-06T07:20:15.275Z,16.50
2018-09-06T07:22:43.798Z,16.70
2018-09-06T07:25:12.477Z,16.80
2018-09-06T07:27:41.162Z,16.90
2018-09-06T07:30:09.878Z,17.00
2018-09-06T07:32:38.381Z,17.10
2018-09-06T07:35:07.215Z,17.30
2018-09-06T07:37:35.726Z,17.50
2018-09-06T07:40:04.470Z,17.60
2018-09-06T07:42:33.158Z,17.70
2018-09-06T07:45:02.005Z,17.80
2018-09-06T07:47:30.591Z,18.00
2018-09-06T07:49:59.322Z,18.20
2018-09-06T07:52:27.929Z,18.40
2018-09-06T07:54:56.457Z,18.60
2018-09-06T07:57:25.207Z,18.70
2018-09-06T07:59:53.900Z,18.70
2018-09-06T08:02:22.419Z,18.80
2018-09-06T08:04:51.673Z,18.80
2018-09-06T08:07:20.129Z,18.90
2018-09-06T08:09:48.800Z,18.80
2018-09-06T08:12:17.673Z,18.70
2018-09-06T08:14:46.380Z,18.60
2018-09-06T08:17:14.936Z,18.50
2018-09-06T08:19:43.796Z,18.50
2018-09-06T08:22:12.346Z,18.60
2018-09-06T08:24:40.911Z,18.70
2018-09-06T08:27:09.501Z,18.90
2018-09-06T08:29:38.053Z,19.10
2018-09-06T08:32:06.737Z,19.40
2018-09-06T08:34:35.251Z,19.50
2018-09-06T08:37:03.748Z,19.70
2018-09-06T08:39:32.280Z,19.80
2018-09-06T08:42:00.781Z,19.90
2018-09-06T08:44:29.292Z,20.00
2018-09-06T08:46:57.837Z,20.10
2018-09-06T08:49:26.298Z,20.30
2018-09-06T08:51:54.843Z,20.40
2018-09-06T08:54:23.373Z,20.30
2018-09-06T08:56:51.986Z,20.20
2018-09-06T08:59:20.696Z,20.40
2018-09-06T09:01:49.189Z,20.60
2018-09-06T09:04:17.724Z,20.60
2018-09-06T09:06:46.296Z,20.70
2018-09-06T09:09:15.639Z,20.80
2018-09-06T09:11:44.211Z,20.70
2018-09-06T09:14:12.712Z,20.80
2018-09-06T09:16:41.266Z,21.00
2018-09-06T09:19:09.799Z,21.00
2018-09-06T09:21:38.405Z,21.00
2018-09-06T09:24:07.252Z,21.10
2018-09-06T09:26:36.176Z,21.20
2018-09-06T09:29:04.695Z,21.20
2018-09-06T09:31:33.230Z,21.20
2018-09-06T09:34:01.759Z,21.30
2018-09-06T09:36:30.291Z,21.30
2018-09-06T09:38:58.874Z,21.30
2018-09-06T09:41:27.400Z,21.40
2018-09-06T09:43:55.932Z,21.50
2018-09-06T09:48:52.428Z,21.80
2018-09-06T09:51:20.923Z,22.00
2018-09-06T09:53:49.436Z,22.00
2018-09-06T09:56:17.980Z,22.10
2018-09-06T09:58:46.500Z,22.30
2018-09-06T10:01:15.107Z,22.50
2018-09-06T10:03:49.104Z,22.60
2018-09-06T10:06:21.913Z,22.80
2018-09-06T10:08:55.952Z,22.90
2018-09-06T10:11:24.902Z,22.90
2018-09-06T10:13:53.411Z,22.90
2018-09-06T10:16:22.017Z,22.70
2018-09-06T10:18:50.590Z,22.70
2018-09-06T10:21:19.605Z,22.70
2018-09-06T10:23:48.279Z,22.60
2018-09-06T10:26:16.752Z,22.50
2018-09-06T10:28:45.365Z,22.50
2018-09-06T10:31:13.993Z,22.60
2018-09-06T10:33:42.726Z,22.60
2018-09-06T10:36:11.340Z,22.70
2018-09-06T10:38:39.904Z,22.80
2018-09-06T10:41:08.469Z,22.80
2018-09-06T10:43:37.860Z,22.90
2018-09-06T10:46:06.629Z,23.00
2018-09-06T10:48:37.151Z,22.90
2018-09-06T10:51:05.789Z,22.70
2018-09-06T10:53:34.419Z,22.40
2018-09-06T10:56:03.092Z,22.30
2018-09-06T10:58:31.768Z,22.00
2018-09-06T11:01:05.749Z,21.70
2018-09-06T11:03:34.391Z,21.40
2018-09-06T11:06:02.998Z,21.20
2018-09-06T11:08:31.770Z,20.90
2018-09-06T11:11:00.458Z,20.60
2018-09-06T11:13:29.186Z,20.40
2018-09-06T11:15:57.885Z,20.20
2018-09-06T11:18:26.479Z,20.00
2018-09-06T11:20:55.114Z,19.80
2018-09-06T11:23:23.688Z,19.60
2018-09-06T11:25:52.253Z,19.60
2018-09-06T11:28:21.106Z,19.50
2018-09-06T11:30:49.658Z,19.40
2018-09-06T11:33:18.277Z,19.20
2018-09-06T11:35:46.840Z,19.10
2018-09-06T11:38:15.413Z,18.90
2018-09-06T11:40:44.846Z,18.80
2018-09-06T11:43:13.436Z,18.80
2018-09-06T11:45:42.009Z,18.80
2018-09-06T11:48:10.672Z,18.70
2018-09-06T11:50:39.411Z,18.70
2018-09-06T11:53:07.969Z,18.70
2018-09-06T11:55:36.461Z,18.70
2018-09-06T11:58:05.037Z,18.70
2018-09-06T12:00:35.377Z,18.80
2018-09-06T12:03:03.993Z,18.80
2018-09-06T12:05:32.603Z,18.90
2018-09-06T12:08:01.182Z,18.90
2018-09-06T12:10:29.893Z,18.90
2018-09-06T12:12:58.780Z,18.90
2018-09-06T12:15:27.325Z,18.90
2018-09-06T12:17:55.901Z,19.00
2018-09-06T12:20:24.586Z,19.10
2018-09-06T12:22:53.542Z,19.10
2018-09-06T12:25:22.213Z,19.10
2018-09-06T12:27:50.898Z,19.10
2018-09-06T12:30:22.855Z,19.20
2018-09-06T12:32:53.414Z,19.20
2018-09-06T12:35:25.114Z,19.20
2018-09-06T12:38:00.599Z,19.40
2018-09-06T12:40:32.608Z,19.40
2018-09-06T12:43:01.781Z,19.60
2018-09-06T12:45:33.499Z,19.70
2018-09-06T12:48:03.633Z,19.80
2018-09-06T12:50:35.871Z,19.90
2018-09-06T12:53:06.264Z,20.00
2018-09-06T12:55:36.204Z,20.10
2018-09-06T12:58:06.426Z,20.10
2018-09-06T13:00:37.755Z,20.10
2018-09-06T13:03:10.007Z,20.00
2018-09-06T13:05:42.965Z,20.10
2018-09-06T13:08:14.950Z,20.20
2018-09-06T13:10:49.340Z,20.10
2018-09-06T13:13:25.944Z,20.00
2018-09-06T13:16:03.459Z,20.00
2018-09-06T13:18:38.273Z,19.90
2018-09-06T13:21:12.495Z,20.00
2018-09-06T13:23:46.434Z,20.00
2018-09-06T13:26:28.023Z,20.00
2018-09-06T13:28:59.792Z,19.90
2018-09-06T13:31:35.985Z,19.80
2018-09-06T13:34:10.335Z,19.90
2018-09-06T13:36:45.504Z,19.90
2018-09-06T13:39:18.016Z,20.00
2018-09-06T13:41:48.913Z,20.10
2018-09-06T13:44:21.453Z,20.20
2018-09-06T13:46:52.181Z,20.30
2018-09-06T13:49:28.826Z,20.30
2018-09-06T13:52:01.426Z,20.30
2018-09-06T13:54:34.109Z,20.30
2018-09-06T13:57:05.410Z,20.30
2018-09-06T13:59:38.397Z,20.30
2018-09-06T14:02:10.467Z,20.20
2018-09-06T14:04:40.961Z,20.20
2018-09-06T14:07:11.580Z,20.20
2018-09-06T14:09:43.250Z,20.20
2018-09-06T14:12:14.759Z,20.20
2018-09-06T14:14:46.958Z,20.20
2018-09-06T14:17:19.279Z,20.30
2018-09-06T14:19:50.876Z,20.50
2018-09-06T14:22:26.912Z,20.50
2018-09-06T14:24:58.857Z,20.50
2018-09-06T14:27:31.502Z,20.50
2018-09-06T14:30:06.418Z,20.60
2018-09-06T14:32:37.872Z,20.60
2018-09-06T14:35:14.035Z,20.70
2018-09-06T14:37:47.067Z,20.70
2018-09-06T14:40:19.747Z,20.70
2018-09-06T14:42:51.508Z,20.60
2018-09-06T14:45:23.087Z,20.60
2018-09-06T14:47:55.863Z,20.60
2018-09-06T14:50:27.183Z,20.60
2018-09-06T14:53:02.227Z,20.60
2018-09-06T14:55:30.813Z,20.60
2018-09-06T14:58:03.825Z,20.60
2018-09-06T15:00:40.215Z,20.60
2018-09-06T15:03:12.203Z,20.70
2018-09-06T15:05:40.841Z,20.70
2018-09-06T15:08:09.413Z,20.60
2018-09-06T15:10:38.037Z,20.60
2018-09-06T15:13:06.929Z,20.60
2018-09-06T15:15:35.545Z,20.60
2018-09-06T15:18:04.225Z,20.50
2018-09-06T15:20:32.890Z,20.40
2018-09-06T15:23:02.111Z,20.40
2018-09-06T15:25:30.734Z,20.30
2018-09-06T15:27:59.388Z,20.30
2018-09-06T15:30:27.975Z,20.20
2018-09-06T15:32:56.591Z,20.30
2018-09-06T15:35:25.265Z,20.30
2018-09-06T15:37:53.846Z,20.30
2018-09-06T15:40:22.380Z,20.20
2018-09-06T15:42:50.964Z,20.30
2018-09-06T15:45:19.584Z,20.40
2018-09-06T15:47:48.468Z,20.60
2018-09-06T15:50:17.001Z,20.80
2018-09-06T15:52:45.677Z,21.00
2018-09-06T15:55:14.221Z,21.00
2018-09-06T15:57:42.831Z,21.00
2018-09-06T16:00:11.386Z,20.90
2018-09-06T16:02:40.026Z,20.80
2018-09-06T16:05:08.606Z,20.60
2018-09-06T16:07:37.179Z,20.40
2018-09-06T16:10:05.802Z,20.30
2018-09-06T16:12:34.421Z,20.20
2018-09-06T16:15:03.001Z,20.10
2018-09-06T16:17:31.577Z,20.00
2018-09-06T16:20:00.171Z,19.80
2018-09-06T16:22:28.959Z,19.70
2018-09-06T16:25:00.409Z,19.60
2018-09-06T16:27:29.340Z,19.50
2018-09-06T16:29:57.986Z,19.50
2018-09-06T16:32:26.611Z,19.40
2018-09-06T16:34:55.256Z,19.30
2018-09-06T16:37:23.881Z,19.20
2018-09-06T16:39:52.423Z,19.20
2018-09-06T16:42:20.990Z,19.10
2018-09-06T16:44:49.550Z,19.00
2018-09-06T16:47:18.190Z,19.00
2018-09-06T16:49:46.721Z,18.90
2018-09-06T16:52:15.307Z,18.90
2018-09-06T16:54:43.869Z,18.80
2018-09-06T16:57:12.415Z,18.80
2018-09-06T16:59:40.998Z,18.70
2018-09-06T17:02:09.559Z,18.70
2018-09-06T17:04:38.186Z,18.70
2018-09-06T17:07:06.756Z,18.60
2018-09-06T17:09:35.263Z,18.60
2018-09-06T17:12:03.787Z,18.60
2018-09-06T17:14:32.461Z,18.60
2018-09-06T17:17:00.973Z,18.50
2018-09-06T17:19:29.781Z,18.50
2018-09-06T17:21:58.266Z,18.50
2018-09-06T17:24:26.829Z,18.40
2018-09-06T17:26:55.392Z,18.40
2018-09-06T17:29:24.048Z,18.30
2018-09-06T17:31:52.554Z,18.30
2018-09-06T17:34:21.082Z,18.20
2018-09-06T17:36:49.636Z,18.20
2018-09-06T17:39:18.240Z,18.20
2018-09-06T17:41:47.767Z,18.20
2018-09-06T17:44:16.330Z,18.20
2018-09-06T17:46:44.929Z,18.20
2018-09-06T17:49:13.696Z,18.20
2018-09-06T17:51:42.237Z,18.10
2018-09-06T17:54:10.838Z,18.10
2018-09-06T17:56:39.353Z,18.10
2018-09-06T17:59:07.965Z,18.00
2018-09-06T18:01:38.906Z,18.00
2018-09-06T18:04:07.863Z,18.00
2018-09-06T18:06:36.429Z,18.00
2018-09-06T18:09:10.193Z,17.90
2018-09-06T18:11:39.202Z,17.90
2018-09-06T18:14:07.859Z,17.90
2018-09-06T18:16:36.470Z,17.80
2018-09-06T18:19:06.027Z,17.80
2018-09-06T18:21:35.861Z,17.70
2018-09-06T18:24:04.553Z,17.70
2018-09-06T18:26:33.111Z,17.60
2018-09-06T18:29:01.717Z,17.60
2018-09-06T18:31:30.342Z,17.50
2018-09-06T18:33:58.977Z,17.50
2018-09-06T18:36:27.548Z,17.50
2018-09-06T18:38:56.204Z,17.50
2018-09-06T18:41:24.793Z,17.40
2018-09-06T18:43:53.390Z,17.30
2018-09-06T18:46:21.981Z,17.30
2018-09-06T18:48:50.581Z,17.20
2018-09-06T18:51:19.179Z,17.10
2018-09-06T18:53:47.801Z,17.10
2018-09-06T18:56:16.387Z,17.00
2018-09-06T18:58:45.033Z,16.90
2018-09-06T19:01:13.587Z,16.80
2018-09-06T19:03:42.184Z,16.80
2018-09-06T19:06:10.729Z,16.80
2018-09-06T19:08:39.382Z,16.70
2018-09-06T19:11:07.955Z,16.70
2018-09-06T19:13:36.561Z,16.60
2018-09-06T19:16:05.185Z,16.60
2018-09-06T19:18:33.821Z,16.50
2018-09-06T19:21:02.359Z,16.50
2018-09-06T19:23:30.974Z,16.40
2018-09-06T19:25:59.608Z,16.40
2018-09-06T19:28:28.192Z,16.30
2018-09-06T19:30:56.779Z,16.20
2018-09-06T19:33:25.310Z,16.20
2018-09-06T19:35:54.657Z,16.20
2018-09-06T19:38:23.191Z,16.10
2018-09-06T19:40:51.823Z,16.10
2018-09-06T19:43:20.427Z,16.20
2018-09-06T19:45:49.001Z,16.20
2018-09-06T19:48:17.660Z,16.30
2018-09-06T19:50:46.237Z,16.30
2018-09-06T19:53:14.828Z,16.40
2018-09-06T19:55:43.373Z,16.50
2018-09-06T19:58:11.934Z,16.50
2018-09-06T20:00:40.525Z,16.50
2018-09-06T20:03:09.101Z,16.50
2018-09-06T20:05:37.666Z,16.60
2018-09-06T20:08:06.289Z,16.60
2018-09-06T20:10:34.941Z,16.60
2018-09-06T20:13:03.511Z,16.60
2018-09-06T20:15:32.097Z,16.60
2018-09-06T20:18:00.626Z,16.60
2018-09-06T20:20:29.280Z,16.60
2018-09-06T20:22:57.859Z,16.60
2018-09-06T20:25:26.457Z,16.60
2018-09-06T20:27:55.099Z,16.60
2018-09-06T20:30:23.876Z,16.60
2018-09-06T20:32:52.430Z,16.60
2018-09-06T20:35:20.973Z,16.60
2018-09-06T20:37:49.542Z,16.60
2018-09-06T20:40:18.085Z,16.60
2018-09-06T20:42:46.661Z,16.60
2018-09-06T20:45:15.186Z,16.60
2018-09-06T20:47:43.777Z,16.70
2018-09-06T20:50:12.290Z,16.70
2018-09-06T20:52:40.863Z,16.70
2018-09-06T20:55:09.417Z,16.70
2018-09-06T20:57:37.952Z,16.70
2018-09-06T21:00:06.500Z,16.70
2018-09-06T21:02:40.117Z,16.70
2018-09-06T21:05:12.522Z,16.80
2018-09-06T21:07:44.116Z,16.80
2018-09-06T21:10:12.678Z,16.80
2018-09-06T21:12:42.877Z,16.80
2018-09-06T21:15:12.077Z,16.80
2018-09-06T21:17:40.672Z,16.80
2018-09-06T21:20:09.384Z,16.70
2018-09-06T21:22:38.655Z,16.70
2018-09-06T21:25:07.397Z,16.70
2018-09-06T21:27:36.733Z,16.70
2018-09-06T21:30:07.424Z,16.70
2018-09-06T21:32:37.939Z,16.70
2018-09-06T21:35:07.604Z,16.60
2018-09-06T21:37:36.493Z,16.60
2018-09-06T21:40:05.790Z,16.60
2018-09-06T21:42:34.443Z,16.60
2018-09-06T21:45:03.319Z,16.60
2018-09-06T21:47:33.480Z,16.60
2018-09-06T21:50:02.240Z,16.60
2018-09-06T21:52:30.832Z,16.60
2018-09-06T21:54:59.391Z,16.50
2018-09-06T21:57:28.446Z,16.50
2018-09-06T21:59:56.962Z,16.50
2018-09-06T22:02:30.861Z,16.50
2018-09-06T22:04:59.399Z,16.40
2018-09-06T22:07:28.278Z,16.30
2018-09-06T22:09:57.455Z,16.30
2018-09-06T22:12:26.016Z,16.30
2018-09-06T22:14:54.723Z,16.30
2018-09-06T22:17:23.373Z,16.30
2018-09-06T22:19:52.040Z,16.30
2018-09-06T22:22:20.584Z,16.30
2018-09-06T22:24:49.406Z,16.20
2018-09-06T22:27:17.984Z,16.20
2018-09-06T22:29:46.809Z,16.20
2018-09-06T22:32:15.380Z,16.20
2018-09-06T22:34:44.746Z,16.20
2018-09-06T22:37:13.279Z,16.20
2018-09-06T22:39:41.938Z,16.20
2018-09-06T22:42:10.493Z,16.20
2018-09-06T22:44:39.190Z,16.20
2018-09-06T22:47:08.045Z,16.10
2018-09-06T22:49:36.634Z,16.10
2018-09-06T22:52:05.565Z,16.10
2018-09-06T22:54:34.197Z,16.10
2018-09-06T22:57:02.933Z,16.10
2018-09-06T22:59:31.526Z,16.00
2018-09-06T23:02:00.111Z,16.00
2018-09-06T23:04:28.732Z,16.00
2018-09-06T23:06:57.276Z,16.00
2018-09-06T23:09:25.941Z,16.00
2018-09-06T23:11:54.546Z,15.90
2018-09-06T23:14:23.100Z,16.00
2018-09-06T23:16:52.227Z,16.00
2018-09-06T23:19:20.881Z,16.00
2018-09-06T23:21:49.393Z,16.00
2018-09-06T23:24:17.973Z,16.00
2018-09-06T23:26:46.477Z,16.00
2018-09-06T23:29:15.070Z,15.90
2018-09-06T23:31:43.648Z,15.90
2018-09-06T23:34:12.202Z,15.90
2018-09-06T23:36:40.754Z,15.90
2018-09-06T23:39:09.373Z,15.90
2018-09-06T23:41:37.969Z,15.90
2018-09-06T23:44:06.558Z,15.80
2018-09-06T23:46:35.169Z,15.80
2018-09-06T23:49:03.691Z,15.80
2018-09-06T23:51:32.285Z,15.70
2018-09-06T23:54:00.816Z,15.70
2018-09-06T23:56:29.396Z,15.70
2018-09-06T23:58:57.985Z,15.70
